String Prairie, Texas
Current Conditions -  °F | °C
As of 2:55 PM on Thursday 23 Oct 2014 (Local Time) from K3T5 Reporting Station
Clear Clear  
Wind Chill: 80°   Ceiling: Unl
Heat Index: 80°   Visibility: 10mi
Dew Point: 60°   Wind: 6mph
Humidity: 51%   Direction: 360°N
Pressure: 30.06"   Gusts: NA
Location:  29.8725°N, 97.3223°W
Report Text: K3T5 231955Z AUTO 36005KT 10SM CLR 26/15 A3006 RMK AO2 T02640154
Loading
Personal Weather Stations






























Interactive Weather Map
Tropical Storm Tracking
New forecast layout! Learn more

10-Day Weather Forecast

Advertisements
Track Severe Weather on mobile